sensor_id;sensor_type;location;lat;lon;timestamp;temperature;humidity
69084;SHT31;56185;48.526;9.044;2022-10-16T00:00:32;15.55;86.26
69084;SHT31;56185;48.526;9.044;2022-10-16T00:02:58;15.65;85.62
69084;SHT31;56185;48.526;9.044;2022-10-16T00:05:23;15.61;85.51
69084;SHT31;56185;48.526;9.044;2022-10-16T00:07:48;15.51;85.96
69084;SHT31;56185;48.526;9.044;2022-10-16T00:10:13;15.54;86.09
69084;SHT31;56185;48.526;9.044;2022-10-16T00:12:39;15.34;86.90
69084;SHT31;56185;48.526;9.044;2022-10-16T00:15:04;15.38;86.30
69084;SHT31;56185;48.526;9.044;2022-10-16T00:17:30;15.45;85.80
69084;SHT31;56185;48.526;9.044;2022-10-16T00:19:55;15.41;85.64
69084;SHT31;56185;48.526;9.044;2022-10-16T00:22:21;15.31;85.99
69084;SHT31;56185;48.526;9.044;2022-10-16T00:24:46;15.35;85.59
69084;SHT31;56185;48.526;9.044;2022-10-16T00:27:11;15.33;85.73
69084;SHT31;56185;48.526;9.044;2022-10-16T00:29:36;15.19;86.84
69084;SHT31;56185;48.526;9.044;2022-10-16T00:32:01;15.26;86.27
69084;SHT31;56185;48.526;9.044;2022-10-16T00:34:27;15.24;86.32
69084;SHT31;56185;48.526;9.044;2022-10-16T00:36:52;15.14;86.59
69084;SHT31;56185;48.526;9.044;2022-10-16T00:39:17;15.14;87.18
69084;SHT31;56185;48.526;9.044;2022-10-16T00:41:43;15.11;86.89
69084;SHT31;56185;48.526;9.044;2022-10-16T00:44:44;15.10;86.92
69084;SHT31;56185;48.526;9.044;2022-10-16T00:47:10;15.02;86.92
69084;SHT31;56185;48.526;9.044;2022-10-16T00:49:36;15.10;86.47
69084;SHT31;56185;48.526;9.044;2022-10-16T00:52:02;15.16;86.32
69084;SHT31;56185;48.526;9.044;2022-10-16T00:54:30;15.10;86.56
69084;SHT31;56185;48.526;9.044;2022-10-16T00:56:59;15.07;86.82
69084;SHT31;56185;48.526;9.044;2022-10-16T00:59:28;15.16;86.27
69084;SHT31;56185;48.526;9.044;2022-10-16T01:01:54;15.11;86.64
69084;SHT31;56185;48.526;9.044;2022-10-16T01:04:20;15.19;86.50
69084;SHT31;56185;48.526;9.044;2022-10-16T01:06:47;15.19;86.38
69084;SHT31;56185;48.526;9.044;2022-10-16T01:09:23;15.20;86.47
69084;SHT31;56185;48.526;9.044;2022-10-16T01:12:50;15.16;86.55
69084;SHT31;56185;48.526;9.044;2022-10-16T01:18:31;15.16;86.70
69084;SHT31;56185;48.526;9.044;2022-10-16T01:21:04;15.26;86.32
69084;SHT31;56185;48.526;9.044;2022-10-16T01:28:46;15.06;86.85
69084;SHT31;56185;48.526;9.044;2022-10-16T01:31:17;15.00;86.89
69084;SHT31;56185;48.526;9.044;2022-10-16T01:33:46;15.08;86.86
69084;SHT31;56185;48.526;9.044;2022-10-16T01:36:21;15.04;87.35
69084;SHT31;56185;48.526;9.044;2022-10-16T01:38:51;15.11;86.87
69084;SHT31;56185;48.526;9.044;2022-10-16T01:41:25;15.10;87.28
69084;SHT31;56185;48.526;9.044;2022-10-16T01:44:11;15.07;87.31
69084;SHT31;56185;48.526;9.044;2022-10-16T01:46:42;15.08;87.16
69084;SHT31;56185;48.526;9.044;2022-10-16T01:49:09;15.20;86.70
69084;SHT31;56185;48.526;9.044;2022-10-16T01:51:36;15.17;87.05
69084;SHT31;56185;48.526;9.044;2022-10-16T01:54:05;15.23;86.65
69084;SHT31;56185;48.526;9.044;2022-10-16T01:56:32;15.23;86.60
69084;SHT31;56185;48.526;9.044;2022-10-16T01:59:01;15.33;85.92
69084;SHT31;56185;48.526;9.044;2022-10-16T02:01:31;15.27;86.01
69084;SHT31;56185;48.526;9.044;2022-10-16T02:04:03;15.27;86.20
69084;SHT31;56185;48.526;9.044;2022-10-16T02:06:29;15.28;86.32
69084;SHT31;56185;48.526;9.044;2022-10-16T02:08:54;15.28;86.31
69084;SHT31;56185;48.526;9.044;2022-10-16T02:11:20;15.33;86.04
69084;SHT31;56185;48.526;9.044;2022-10-16T02:13:48;15.30;86.00
69084;SHT31;56185;48.526;9.044;2022-10-16T02:16:16;15.20;86.25
69084;SHT31;56185;48.526;9.044;2022-10-16T02:18:42;15.27;86.00
69084;SHT31;56185;48.526;9.044;2022-10-16T02:21:25;15.20;86.58
69084;SHT31;56185;48.526;9.044;2022-10-16T02:23:58;15.31;86.14
69084;SHT31;56185;48.526;9.044;2022-10-16T02:26:42;15.13;86.79
69084;SHT31;56185;48.526;9.044;2022-10-16T02:29:12;15.19;86.55
69084;SHT31;56185;48.526;9.044;2022-10-16T02:31:43;15.23;86.44
69084;SHT31;56185;48.526;9.044;2022-10-16T02:34:12;15.19;87.45
69084;SHT31;56185;48.526;9.044;2022-10-16T02:36:39;15.24;86.58
69084;SHT31;56185;48.526;9.044;2022-10-16T02:39:06;15.28;86.23
69084;SHT31;56185;48.526;9.044;2022-10-16T02:41:32;15.24;86.19
69084;SHT31;56185;48.526;9.044;2022-10-16T02:43:57;15.19;86.32
69084;SHT31;56185;48.526;9.044;2022-10-16T02:46:22;15.22;86.05
69084;SHT31;56185;48.526;9.044;2022-10-16T02:48:48;15.26;85.97
69084;SHT31;56185;48.526;9.044;2022-10-16T02:51:13;15.17;86.07
69084;SHT31;56185;48.526;9.044;2022-10-16T02:53:38;15.14;86.57
69084;SHT31;56185;48.526;9.044;2022-10-16T02:56:04;15.06;86.79
69084;SHT31;56185;48.526;9.044;2022-10-16T02:58:29;15.11;86.75
69084;SHT31;56185;48.526;9.044;2022-10-16T03:00:55;15.04;86.57
69084;SHT31;56185;48.526;9.044;2022-10-16T03:03:20;15.03;86.67
69084;SHT31;56185;48.526;9.044;2022-10-16T03:05:45;15.04;86.75
69084;SHT31;56185;48.526;9.044;2022-10-16T03:08:11;14.97;86.94
69084;SHT31;56185;48.526;9.044;2022-10-16T03:10:36;14.87;87.09
69084;SHT31;56185;48.526;9.044;2022-10-16T03:13:02;14.82;87.52
69084;SHT31;56185;48.526;9.044;2022-10-16T03:15:27;14.79;87.94
69084;SHT31;56185;48.526;9.044;2022-10-16T03:17:52;14.87;87.88
69084;SHT31;56185;48.526;9.044;2022-10-16T03:20:18;14.99;87.05
69084;SHT31;56185;48.526;9.044;2022-10-16T03:22:43;14.94;87.41
69084;SHT31;56185;48.526;9.044;2022-10-16T03:25:08;14.93;87.15
69084;SHT31;56185;48.526;9.044;2022-10-16T03:27:33;14.93;87.12
69084;SHT31;56185;48.526;9.044;2022-10-16T03:29:58;15.00;86.72
69084;SHT31;56185;48.526;9.044;2022-10-16T03:32:24;15.00;86.83
69084;SHT31;56185;48.526;9.044;2022-10-16T03:34:49;14.99;86.87
69084;SHT31;56185;48.526;9.044;2022-10-16T03:37:14;15.02;86.73
69084;SHT31;56185;48.526;9.044;2022-10-16T03:39:39;14.86;87.04
69084;SHT31;56185;48.526;9.044;2022-10-16T03:42:05;14.86;87.10
69084;SHT31;56185;48.526;9.044;2022-10-16T03:44:30;14.80;87.76
69084;SHT31;56185;48.526;9.044;2022-10-16T03:46:55;14.80;87.49
69084;SHT31;56185;48.526;9.044;2022-10-16T03:49:20;14.75;88.06
69084;SHT31;56185;48.526;9.044;2022-10-16T03:51:46;14.76;88.08
69084;SHT31;56185;48.526;9.044;2022-10-16T03:54:11;14.76;87.90
69084;SHT31;56185;48.526;9.044;2022-10-16T03:56:36;14.90;87.39
69084;SHT31;56185;48.526;9.044;2022-10-16T03:59:01;14.92;87.17
69084;SHT31;56185;48.526;9.044;2022-10-16T04:01:27;14.94;86.79
69084;SHT31;56185;48.526;9.044;2022-10-16T04:03:52;14.92;87.06
69084;SHT31;56185;48.526;9.044;2022-10-16T04:06:17;14.79;87.36
69084;SHT31;56185;48.526;9.044;2022-10-16T04:08:43;14.86;86.95
69084;SHT31;56185;48.526;9.044;2022-10-16T04:11:08;14.96;86.84
69084;SHT31;56185;48.526;9.044;2022-10-16T04:13:34;14.87;86.54
69084;SHT31;56185;48.526;9.044;2022-10-16T04:15:59;14.89;86.37
69084;SHT31;56185;48.526;9.044;2022-10-16T04:18:24;14.79;86.62
69084;SHT31;56185;48.526;9.044;2022-10-16T04:20:49;14.71;87.21
69084;SHT31;56185;48.526;9.044;2022-10-16T04:23:15;14.71;86.95
69084;SHT31;56185;48.526;9.044;2022-10-16T04:25:40;14.69;87.28
69084;SHT31;56185;48.526;9.044;2022-10-16T04:28:05;14.71;87.44
69084;SHT31;56185;48.526;9.044;2022-10-16T04:30:30;14.77;86.79
69084;SHT31;56185;48.526;9.044;2022-10-16T04:32:56;14.75;87.06
69084;SHT31;56185;48.526;9.044;2022-10-16T04:35:21;14.76;87.18
69084;SHT31;56185;48.526;9.044;2022-10-16T04:37:47;14.80;87.00
69084;SHT31;56185;48.526;9.044;2022-10-16T04:40:12;14.82;87.01
69084;SHT31;56185;48.526;9.044;2022-10-16T04:42:38;14.72;87.51
69084;SHT31;56185;48.526;9.044;2022-10-16T04:45:05;14.80;87.53
69084;SHT31;56185;48.526;9.044;2022-10-16T04:47:30;14.77;87.42
69084;SHT31;56185;48.526;9.044;2022-10-16T04:49:55;14.72;87.75
69084;SHT31;56185;48.526;9.044;2022-10-16T04:52:21;14.80;87.76
69084;SHT31;56185;48.526;9.044;2022-10-16T04:54:46;14.68;87.93
69084;SHT31;56185;48.526;9.044;2022-10-16T04:57:11;14.71;87.62
69084;SHT31;56185;48.526;9.044;2022-10-16T04:59:36;14.63;87.85
69084;SHT31;56185;48.526;9.044;2022-10-16T05:02:02;14.72;87.67
69084;SHT31;56185;48.526;9.044;2022-10-16T05:04:27;14.73;87.54
69084;SHT31;56185;48.526;9.044;2022-10-16T05:06:52;14.68;87.65
69084;SHT31;56185;48.526;9.044;2022-10-16T05:09:17;14.72;87.44
69084;SHT31;56185;48.526;9.044;2022-10-16T05:11:43;14.63;87.43
69084;SHT31;56185;48.526;9.044;2022-10-16T05:14:08;14.65;87.25
69084;SHT31;56185;48.526;9.044;2022-10-16T05:16:33;14.55;87.25
69084;SHT31;56185;48.526;9.044;2022-10-16T05:18:58;14.69;86.93
69084;SHT31;56185;48.526;9.044;2022-10-16T05:21:24;14.58;87.24
69084;SHT31;56185;48.526;9.044;2022-10-16T05:23:49;14.51;87.46
69084;SHT31;56185;48.526;9.044;2022-10-16T05:26:14;14.51;86.97
69084;SHT31;56185;48.526;9.044;2022-10-16T05:28:39;14.48;87.08
69084;SHT31;56185;48.526;9.044;2022-10-16T05:31:06;14.31;87.78
69084;SHT31;56185;48.526;9.044;2022-10-16T05:33:32;14.35;87.63
69084;SHT31;56185;48.526;9.044;2022-10-16T05:36:09;14.38;87.19
69084;SHT31;56185;48.526;9.044;2022-10-16T05:38:36;14.31;87.96
69084;SHT31;56185;48.526;9.044;2022-10-16T05:41:02;14.29;87.79
69084;SHT31;56185;48.526;9.044;2022-10-16T05:43:28;14.46;86.95
69084;SHT31;56185;48.526;9.044;2022-10-16T05:48:32;14.20;88.00
69084;SHT31;56185;48.526;9.044;2022-10-16T05:51:01;14.18;88.31
69084;SHT31;56185;48.526;9.044;2022-10-16T05:53:28;14.26;88.05
69084;SHT31;56185;48.526;9.044;2022-10-16T05:55:55;14.22;88.61
69084;SHT31;56185;48.526;9.044;2022-10-16T05:58:21;14.28;88.47
69084;SHT31;56185;48.526;9.044;2022-10-16T06:00:57;14.34;88.52
69084;SHT31;56185;48.526;9.044;2022-10-16T06:03:22;14.36;88.51
69084;SHT31;56185;48.526;9.044;2022-10-16T06:05:48;14.35;88.57
69084;SHT31;56185;48.526;9.044;2022-10-16T06:08:13;14.41;88.41
69084;SHT31;56185;48.526;9.044;2022-10-16T06:10:38;14.46;88.54
69084;SHT31;56185;48.526;9.044;2022-10-16T06:13:04;14.54;88.11
69084;SHT31;56185;48.526;9.044;2022-10-16T06:15:29;14.56;87.60
69084;SHT31;56185;48.526;9.044;2022-10-16T06:17:54;14.61;87.47
69084;SHT31;56185;48.526;9.044;2022-10-16T06:20:19;14.51;87.64
69084;SHT31;56185;48.526;9.044;2022-10-16T06:22:45;14.58;87.13
69084;SHT31;56185;48.526;9.044;2022-10-16T06:25:10;14.61;86.90
69084;SHT31;56185;48.526;9.044;2022-10-16T06:27:35;14.52;87.05
69084;SHT31;56185;48.526;9.044;2022-10-16T06:30:01;14.58;86.98
69084;SHT31;56185;48.526;9.044;2022-10-16T06:32:27;14.61;86.77
69084;SHT31;56185;48.526;9.044;2022-10-16T06:34:52;14.72;86.42
69084;SHT31;56185;48.526;9.044;2022-10-16T06:37:17;14.87;86.43
69084;SHT31;56185;48.526;9.044;2022-10-16T06:39:43;14.94;85.72
69084;SHT31;56185;48.526;9.044;2022-10-16T06:42:08;14.94;85.97
69084;SHT31;56185;48.526;9.044;2022-10-16T06:44:33;14.96;86.21
69084;SHT31;56185;48.526;9.044;2022-10-16T06:46:58;15.07;85.81
69084;SHT31;56185;48.526;9.044;2022-10-16T06:49:23;15.10;85.89
69084;SHT31;56185;48.526;9.044;2022-10-16T06:51:49;15.08;85.52
69084;SHT31;56185;48.526;9.044;2022-10-16T06:54:15;15.04;85.83
69084;SHT31;56185;48.526;9.044;2022-10-16T06:56:40;15.02;86.09
69084;SHT31;56185;48.526;9.044;2022-10-16T06:59:05;15.04;86.00
69084;SHT31;56185;48.526;9.044;2022-10-16T07:01:31;15.04;85.95
69084;SHT31;56185;48.526;9.044;2022-10-16T07:03:57;15.04;86.09
69084;SHT31;56185;48.526;9.044;2022-10-16T07:06:23;14.94;86.76
69084;SHT31;56185;48.526;9.044;2022-10-16T07:08:49;15.02;86.62
69084;SHT31;56185;48.526;9.044;2022-10-16T07:11:17;15.16;86.20
69084;SHT31;56185;48.526;9.044;2022-10-16T07:13:44;15.22;86.13
69084;SHT31;56185;48.526;9.044;2022-10-16T07:16:11;15.23;85.72
69084;SHT31;56185;48.526;9.044;2022-10-16T07:18:36;15.23;86.03
69084;SHT31;56185;48.526;9.044;2022-10-16T07:21:06;15.27;86.21
69084;SHT31;56185;48.526;9.044;2022-10-16T07:23:32;15.31;86.07
69084;SHT31;56185;48.526;9.044;2022-10-16T07:25:57;15.38;85.71
69084;SHT31;56185;48.526;9.044;2022-10-16T07:28:23;15.41;85.93
69084;SHT31;56185;48.526;9.044;2022-10-16T07:30:48;15.47;85.58
69084;SHT31;56185;48.526;9.044;2022-10-16T07:33:14;15.50;85.45
69084;SHT31;56185;48.526;9.044;2022-10-16T07:35:56;15.54;85.59
69084;SHT31;56185;48.526;9.044;2022-10-16T07:38:21;15.61;84.98
69084;SHT31;56185;48.526;9.044;2022-10-16T07:40:47;15.66;85.49
69084;SHT31;56185;48.526;9.044;2022-10-16T07:43:12;15.66;85.48
69084;SHT31;56185;48.526;9.044;2022-10-16T07:45:46;15.75;85.20
69084;SHT31;56185;48.526;9.044;2022-10-16T07:48:12;15.81;84.76
69084;SHT31;56185;48.526;9.044;2022-10-16T07:50:37;15.77;84.93
69084;SHT31;56185;48.526;9.044;2022-10-16T07:53:02;15.78;84.68
69084;SHT31;56185;48.526;9.044;2022-10-16T07:55:27;15.82;85.19
69084;SHT31;56185;48.526;9.044;2022-10-16T07:57:53;15.77;84.62
69084;SHT31;56185;48.526;9.044;2022-10-16T08:00:18;15.79;84.57
69084;SHT31;56185;48.526;9.044;2022-10-16T08:02:43;15.82;84.77
69084;SHT31;56185;48.526;9.044;2022-10-16T08:05:08;15.88;84.47
69084;SHT31;56185;48.526;9.044;2022-10-16T08:07:34;15.92;84.55
69084;SHT31;56185;48.526;9.044;2022-10-16T08:09:59;15.96;84.56
69084;SHT31;56185;48.526;9.044;2022-10-16T08:12:27;16.06;84.36
69084;SHT31;56185;48.526;9.044;2022-10-16T08:14:52;16.13;83.70
69084;SHT31;56185;48.526;9.044;2022-10-16T08:17:17;16.13;84.19
69084;SHT31;56185;48.526;9.044;2022-10-16T08:19:46;16.17;83.25
69084;SHT31;56185;48.526;9.044;2022-10-16T08:22:13;16.32;83.68
69084;SHT31;56185;48.526;9.044;2022-10-16T08:24:38;16.40;83.67
69084;SHT31;56185;48.526;9.044;2022-10-16T08:27:03;16.44;83.34
69084;SHT31;56185;48.526;9.044;2022-10-16T08:29:29;16.51;82.95
69084;SHT31;56185;48.526;9.044;2022-10-16T08:31:54;16.59;82.57
69084;SHT31;56185;48.526;9.044;2022-10-16T08:34:19;16.59;82.77
69084;SHT31;56185;48.526;9.044;2022-10-16T08:36:45;16.63;82.73
69084;SHT31;56185;48.526;9.044;2022-10-16T08:39:10;16.67;82.46
69084;SHT31;56185;48.526;9.044;2022-10-16T08:44:39;16.72;81.71
69084;SHT31;56185;48.526;9.044;2022-10-16T08:47:22;16.74;82.22
69084;SHT31;56185;48.526;9.044;2022-10-16T08:49:58;16.80;81.92
69084;SHT31;56185;48.526;9.044;2022-10-16T08:52:30;16.82;81.70
69084;SHT31;56185;48.526;9.044;2022-10-16T08:54:57;16.88;81.48
69084;SHT31;56185;48.526;9.044;2022-10-16T08:57:25;16.87;81.55
69084;SHT31;56185;48.526;9.044;2022-10-16T08:59:51;16.89;81.83
69084;SHT31;56185;48.526;9.044;2022-10-16T09:04:59;16.89;82.24
69084;SHT31;56185;48.526;9.044;2022-10-16T09:07:38;16.96;82.36
69084;SHT31;56185;48.526;9.044;2022-10-16T09:11:08;17.11;82.18
69084;SHT31;56185;48.526;9.044;2022-10-16T09:13:24;17.26;81.47
69084;SHT31;56185;48.526;9.044;2022-10-16T09:16:24;17.43;81.32
69084;SHT31;56185;48.526;9.044;2022-10-16T09:18:56;17.62;80.91
69084;SHT31;56185;48.526;9.044;2022-10-16T09:21:39;17.73;80.47
69084;SHT31;56185;48.526;9.044;2022-10-16T09:24:19;18.07;79.26
69084;SHT31;56185;48.526;9.044;2022-10-16T09:26:45;18.20;79.31
69084;SHT31;56185;48.526;9.044;2022-10-16T09:29:16;18.24;78.01
69084;SHT31;56185;48.526;9.044;2022-10-16T09:31:42;18.29;77.21
69084;SHT31;56185;48.526;9.044;2022-10-16T09:36:44;18.90;76.50
69084;SHT31;56185;48.526;9.044;2022-10-16T09:39:11;18.96;75.17
69084;SHT31;56185;48.526;9.044;2022-10-16T09:41:39;18.77;75.76
69084;SHT31;56185;48.526;9.044;2022-10-16T09:44:26;18.62;75.98
69084;SHT31;56185;48.526;9.044;2022-10-16T09:47:04;18.52;76.67
69084;SHT31;56185;48.526;9.044;2022-10-16T09:49:29;18.58;77.32
69084;SHT31;56185;48.526;9.044;2022-10-16T09:52:13;18.55;76.95
69084;SHT31;56185;48.526;9.044;2022-10-16T09:54:49;18.56;76.65
69084;SHT31;56185;48.526;9.044;2022-10-16T09:57:15;18.58;76.93
69084;SHT31;56185;48.526;9.044;2022-10-16T09:59:51;18.59;75.68
69084;SHT31;56185;48.526;9.044;2022-10-16T10:02:19;18.59;76.14
69084;SHT31;56185;48.526;9.044;2022-10-16T10:04:52;18.62;76.08
69084;SHT31;56185;48.526;9.044;2022-10-16T10:07:21;18.59;76.80
69084;SHT31;56185;48.526;9.044;2022-10-16T10:09:48;18.65;77.32
69084;SHT31;56185;48.526;9.044;2022-10-16T10:12:30;18.82;77.12
69084;SHT31;56185;48.526;9.044;2022-10-16T10:14:58;19.07;76.55
69084;SHT31;56185;48.526;9.044;2022-10-16T10:17:28;19.13;75.81
69084;SHT31;56185;48.526;9.044;2022-10-16T10:19:57;19.17;76.14
69084;SHT31;56185;48.526;9.044;2022-10-16T10:30:25;19.96;73.56
69084;SHT31;56185;48.526;9.044;2022-10-16T10:39:02;20.43;70.14
69084;SHT31;56185;48.526;9.044;2022-10-16T10:44:42;20.85;68.85
69084;SHT31;56185;48.526;9.044;2022-10-16T10:52:53;21.33;66.38
69084;SHT31;56185;48.526;9.044;2022-10-16T10:55:31;21.19;65.48
69084;SHT31;56185;48.526;9.044;2022-10-16T11:01:08;21.59;64.58
69084;SHT31;56185;48.526;9.044;2022-10-16T11:06:31;21.83;64.49
69084;SHT31;56185;48.526;9.044;2022-10-16T11:09:02;21.90;64.55
69084;SHT31;56185;48.526;9.044;2022-10-16T11:14:19;22.01;62.87
69084;SHT31;56185;48.526;9.044;2022-10-16T11:16:52;22.10;63.00
69084;SHT31;56185;48.526;9.044;2022-10-16T11:24:48;22.32;60.62
69084;SHT31;56185;48.526;9.044;2022-10-16T11:27:19;22.35;58.18
69084;SHT31;56185;48.526;9.044;2022-10-16T11:29:52;22.38;59.04
69084;SHT31;56185;48.526;9.044;2022-10-16T11:32:24;22.32;58.84
69084;SHT31;56185;48.526;9.044;2022-10-16T11:34:55;22.27;58.48
69084;SHT31;56185;48.526;9.044;2022-10-16T11:37:27;22.22;59.43
69084;SHT31;56185;48.526;9.044;2022-10-16T11:39:59;22.31;59.93
69084;SHT31;56185;48.526;9.044;2022-10-16T11:42:39;22.27;58.24
69084;SHT31;56185;48.526;9.044;2022-10-16T11:47:54;22.32;57.72
69084;SHT31;56185;48.526;9.044;2022-10-16T11:50:39;22.45;56.94
69084;SHT31;56185;48.526;9.044;2022-10-16T11:56:18;22.53;57.35
69084;SHT31;56185;48.526;9.044;2022-10-16T12:01:46;22.75;55.62
69084;SHT31;56185;48.526;9.044;2022-10-16T12:04:36;22.75;54.87
69084;SHT31;56185;48.526;9.044;2022-10-16T12:07:24;22.75;56.25
69084;SHT31;56185;48.526;9.044;2022-10-16T12:18:41;22.85;54.55
69084;SHT31;56185;48.526;9.044;2022-10-16T12:21:07;22.92;54.12
69084;SHT31;56185;48.526;9.044;2022-10-16T12:23:37;22.98;53.65
69084;SHT31;56185;48.526;9.044;2022-10-16T12:26:04;22.93;54.50
69084;SHT31;56185;48.526;9.044;2022-10-16T12:28:31;22.86;54.45
69084;SHT31;56185;48.526;9.044;2022-10-16T12:31:00;22.96;54.74
69084;SHT31;56185;48.526;9.044;2022-10-16T12:33:30;23.09;55.67
69084;SHT31;56185;48.526;9.044;2022-10-16T12:36:02;23.24;54.06
69084;SHT31;56185;48.526;9.044;2022-10-16T12:38:45;23.39;52.81
69084;SHT31;56185;48.526;9.044;2022-10-16T12:41:26;23.37;53.93
69084;SHT31;56185;48.526;9.044;2022-10-16T12:43:52;23.47;52.53
69084;SHT31;56185;48.526;9.044;2022-10-16T12:48:44;23.53;52.09
69084;SHT31;56185;48.526;9.044;2022-10-16T12:53:35;23.72;53.68
69084;SHT31;56185;48.526;9.044;2022-10-16T12:56:09;23.84;52.26
69084;SHT31;56185;48.526;9.044;2022-10-16T12:58:45;23.84;52.02
69084;SHT31;56185;48.526;9.044;2022-10-16T13:06:39;23.81;52.67
69084;SHT31;56185;48.526;9.044;2022-10-16T13:09:45;23.67;52.58
69084;SHT31;56185;48.526;9.044;2022-10-16T13:15:28;23.36;54.01
69084;SHT31;56185;48.526;9.044;2022-10-16T13:20:55;23.21;54.72
69084;SHT31;56185;48.526;9.044;2022-10-16T13:23:35;23.19;54.74
69084;SHT31;56185;48.526;9.044;2022-10-16T13:26:39;23.20;53.92
69084;SHT31;56185;48.526;9.044;2022-10-16T13:29:12;23.19;54.74
69084;SHT31;56185;48.526;9.044;2022-10-16T13:31:38;23.20;54.66
69084;SHT31;56185;48.526;9.044;2022-10-16T13:34:05;23.28;54.31
69084;SHT31;56185;48.526;9.044;2022-10-16T13:36:43;23.30;55.49
69084;SHT31;56185;48.526;9.044;2022-10-16T13:39:22;23.33;54.40
69084;SHT31;56185;48.526;9.044;2022-10-16T13:44:33;23.20;54.71
69084;SHT31;56185;48.526;9.044;2022-10-16T13:47:02;23.19;56.09
69084;SHT31;56185;48.526;9.044;2022-10-16T13:49:30;23.24;53.50
69084;SHT31;56185;48.526;9.044;2022-10-16T13:52:03;23.21;53.26
69084;SHT31;56185;48.526;9.044;2022-10-16T13:54:31;23.19;54.50
69084;SHT31;56185;48.526;9.044;2022-10-16T13:57:04;23.26;53.45
69084;SHT31;56185;48.526;9.044;2022-10-16T13:59:35;23.21;53.12
69084;SHT31;56185;48.526;9.044;2022-10-16T14:02:08;23.20;54.14
69084;SHT31;56185;48.526;9.044;2022-10-16T14:05:01;23.19;56.00
69084;SHT31;56185;48.526;9.044;2022-10-16T14:07:30;23.19;55.12
69084;SHT31;56185;48.526;9.044;2022-10-16T14:10:02;23.24;54.21
69084;SHT31;56185;48.526;9.044;2022-10-16T14:12:35;23.21;54.41
69084;SHT31;56185;48.526;9.044;2022-10-16T14:15:17;23.20;56.19
69084;SHT31;56185;48.526;9.044;2022-10-16T14:17:51;23.24;55.70
69084;SHT31;56185;48.526;9.044;2022-10-16T14:20:18;23.30;54.41
69084;SHT31;56185;48.526;9.044;2022-10-16T14:22:44;23.24;54.97
69084;SHT31;56185;48.526;9.044;2022-10-16T14:27:43;23.27;54.51
69084;SHT31;56185;48.526;9.044;2022-10-16T14:30:14;23.28;54.97
69084;SHT31;56185;48.526;9.044;2022-10-16T14:32:52;23.24;56.09
69084;SHT31;56185;48.526;9.044;2022-10-16T14:37:55;23.24;59.77
69084;SHT31;56185;48.526;9.044;2022-10-16T14:40:29;23.30;60.11
69084;SHT31;56185;48.526;9.044;2022-10-16T14:42:55;23.40;57.93
69084;SHT31;56185;48.526;9.044;2022-10-16T14:45:24;23.40;54.74
69084;SHT31;56185;48.526;9.044;2022-10-16T14:47:55;23.53;52.40
69084;SHT31;56185;48.526;9.044;2022-10-16T14:50:24;23.49;53.43
69084;SHT31;56185;48.526;9.044;2022-10-16T14:52:50;23.43;53.24
69084;SHT31;56185;48.526;9.044;2022-10-16T14:55:16;23.36;53.58
69084;SHT31;56185;48.526;9.044;2022-10-16T14:57:45;23.34;55.46
69084;SHT31;56185;48.526;9.044;2022-10-16T15:00:22;23.19;58.39
69084;SHT31;56185;48.526;9.044;2022-10-16T15:02:49;23.04;59.99
69084;SHT31;56185;48.526;9.044;2022-10-16T15:07:42;22.96;61.81
69084;SHT31;56185;48.526;9.044;2022-10-16T15:10:07;22.88;63.06
69084;SHT31;56185;48.526;9.044;2022-10-16T15:12:33;22.77;63.65
69084;SHT31;56185;48.526;9.044;2022-10-16T15:14:58;22.75;63.44
69084;SHT31;56185;48.526;9.044;2022-10-16T15:17:23;22.62;64.08
69084;SHT31;56185;48.526;9.044;2022-10-16T15:19:49;22.47;64.29
69084;SHT31;56185;48.526;9.044;2022-10-16T15:22:23;22.47;63.74
69084;SHT31;56185;48.526;9.044;2022-10-16T15:24:51;22.52;63.79
69084;SHT31;56185;48.526;9.044;2022-10-16T15:27:16;22.37;63.46
69084;SHT31;56185;48.526;9.044;2022-10-16T15:29:41;22.47;64.37
69084;SHT31;56185;48.526;9.044;2022-10-16T15:32:09;22.41;64.39
69084;SHT31;56185;48.526;9.044;2022-10-16T15:34:34;22.38;64.57
69084;SHT31;56185;48.526;9.044;2022-10-16T15:37:03;22.40;64.65
69084;SHT31;56185;48.526;9.044;2022-10-16T15:39:28;22.37;65.01
69084;SHT31;56185;48.526;9.044;2022-10-16T15:41:53;22.32;65.20
69084;SHT31;56185;48.526;9.044;2022-10-16T15:44:19;22.25;64.90
69084;SHT31;56185;48.526;9.044;2022-10-16T16:43:10;20.06;71.99
69084;SHT31;56185;48.526;9.044;2022-10-16T16:45:55;20.08;72.30
69084;SHT31;56185;48.526;9.044;2022-10-16T16:48:21;19.82;72.22
69084;SHT31;56185;48.526;9.044;2022-10-16T16:50:46;19.54;72.38
69084;SHT31;56185;48.526;9.044;2022-10-16T16:53:12;19.72;72.86
69084;SHT31;56185;48.526;9.044;2022-10-16T16:55:37;19.90;72.70
69084;SHT31;56185;48.526;9.044;2022-10-16T16:58:02;19.81;73.07
69084;SHT31;56185;48.526;9.044;2022-10-16T17:00:27;19.76;73.70
69084;SHT31;56185;48.526;9.044;2022-10-16T17:02:53;19.46;74.85
69084;SHT31;56185;48.526;9.044;2022-10-16T17:05:18;19.57;74.38
69084;SHT31;56185;48.526;9.044;2022-10-16T17:07:43;19.46;74.21
69084;SHT31;56185;48.526;9.044;2022-10-16T17:10:09;19.30;74.22
69084;SHT31;56185;48.526;9.044;2022-10-16T17:12:34;19.31;74.45
69084;SHT31;56185;48.526;9.044;2022-10-16T17:14:59;19.38;74.73
69084;SHT31;56185;48.526;9.044;2022-10-16T17:17:25;19.38;74.77
69084;SHT31;56185;48.526;9.044;2022-10-16T17:19:53;19.26;74.87
69084;SHT31;56185;48.526;9.044;2022-10-16T17:22:19;19.18;74.77
69084;SHT31;56185;48.526;9.044;2022-10-16T17:24:47;19.21;74.74
69084;SHT31;56185;48.526;9.044;2022-10-16T17:27:13;19.17;74.95
69084;SHT31;56185;48.526;9.044;2022-10-16T17:29:38;19.18;75.04
69084;SHT31;56185;48.526;9.044;2022-10-16T17:32:03;19.09;75.28
69084;SHT31;56185;48.526;9.044;2022-10-16T17:34:29;19.18;75.02
69084;SHT31;56185;48.526;9.044;2022-10-16T17:36:54;19.03;75.07
69084;SHT31;56185;48.526;9.044;2022-10-16T17:39:19;19.06;75.51
69084;SHT31;56185;48.526;9.044;2022-10-16T17:41:46;19.00;75.70
69084;SHT31;56185;48.526;9.044;2022-10-16T17:44:12;19.03;75.43
69084;SHT31;56185;48.526;9.044;2022-10-16T17:46:37;18.96;75.48
69084;SHT31;56185;48.526;9.044;2022-10-16T17:49:03;18.95;76.00
69084;SHT31;56185;48.526;9.044;2022-10-16T17:51:30;18.89;76.07
69084;SHT31;56185;48.526;9.044;2022-10-16T17:54:00;18.92;76.08
69084;SHT31;56185;48.526;9.044;2022-10-16T17:56:26;18.80;76.52
69084;SHT31;56185;48.526;9.044;2022-10-16T17:58:53;18.92;75.66
69084;SHT31;56185;48.526;9.044;2022-10-16T18:01:24;18.79;75.77
69084;SHT31;56185;48.526;9.044;2022-10-16T18:03:50;18.82;75.86
69084;SHT31;56185;48.526;9.044;2022-10-16T18:06:16;18.83;75.91
69084;SHT31;56185;48.526;9.044;2022-10-16T18:08:42;18.60;76.97
69084;SHT31;56185;48.526;9.044;2022-10-16T18:11:08;18.56;76.77
69084;SHT31;56185;48.526;9.044;2022-10-16T18:13:34;18.49;76.77
69084;SHT31;56185;48.526;9.044;2022-10-16T18:16:04;18.55;76.65